Snyder, Colorado
Current Conditions -  °F | °C
As of 1:15 AM on Thursday 27 Nov 2014 (Local Time) from KFMM Reporting Station
Clear Clear  
Wind Chill: 10°   Ceiling: Unl
Heat Index: 22°   Visibility: 10mi
Dew Point: 20°   Wind: 12mph
Humidity: 94%   Direction: 260°W
Pressure: 30.26"   Gusts: NA
Location:  40.33°N, 103.6°W
Report Text: KFMM 270815Z AUTO 26010KT 10SM CLR M06/M07 A3026 RMK AO2 T10581066
Loading
Personal Weather Stations






























Interactive Weather Map New forecast layout! Learn more

10-Day Weather Forecast

Advertisements
Track Severe Weather on mobile